createdAt,value
2023-02-24T00:02:05.886Z,99584.84
2023-02-24T00:04:39.604Z,99585.69
2023-02-24T00:07:08.731Z,99589.03
2023-02-24T00:09:35.602Z,99579.75
2023-02-24T00:12:10.823Z,99580.59
2023-02-24T00:14:41.175Z,99581.47
2023-02-24T00:17:09.087Z,99577.25
2023-02-24T00:19:37.107Z,99580.66
2023-02-24T00:22:07.011Z,99572.19
2023-02-24T00:24:34.656Z,99569.69
2023-02-24T00:27:07.618Z,99562.09
2023-02-24T00:29:37.459Z,99566.34
2023-02-24T00:32:07.148Z,99564.66
2023-02-24T00:34:36.731Z,99562.97
2023-02-24T00:37:06.961Z,99558.75
2023-02-24T00:39:35.065Z,99555.38
2023-02-24T00:42:05.659Z,99549.47
2023-02-24T00:44:49.741Z,99552.03
2023-02-24T00:47:17.596Z,99547.81
2023-02-24T00:49:44.901Z,99538.53
2023-02-24T00:52:20.534Z,99547.81
2023-02-24T00:54:49.902Z,99540.22
2023-02-24T00:57:18.567Z,99541.91
2023-02-24T00:59:47.618Z,99535.19
2023-02-24T01:02:15.820Z,99532.66
2023-02-24T01:04:44.288Z,99524.22
2023-02-24T01:07:12.949Z,99533.50
2023-02-24T01:09:41.680Z,99519.16
2023-02-24T01:12:22.246Z,99511.56
2023-02-24T01:14:53.149Z,99514.06
2023-02-24T01:17:21.693Z,99511.56
2023-02-24T01:19:50.208Z,99503.13
2023-02-24T01:22:20.287Z,99498.94
2023-02-24T01:24:48.715Z,99493.88
2023-02-24T01:27:20.774Z,99487.13
2023-02-24T01:29:48.557Z,99496.41
2023-02-24T01:32:20.849Z,99489.66
2023-02-24T01:34:51.627Z,99492.22
2023-02-24T01:37:19.417Z,99483.78
2023-02-24T01:39:47.527Z,99486.31
2023-02-24T01:42:19.619Z,99478.72
2023-02-24T01:44:46.559Z,99482.13
2023-02-24T01:47:16.076Z,99477.03
2023-02-24T01:49:47.167Z,99487.19
2023-02-24T01:52:30.581Z,99479.56
2023-02-24T01:55:03.187Z,99488.00
2023-02-24T01:57:35.861Z,99478.75
2023-02-24T02:00:20.263Z,99476.22
2023-02-24T02:02:52.474Z,99473.69
2023-02-24T02:05:19.337Z,99479.59
2023-02-24T02:07:46.471Z,99474.56
2023-02-24T02:10:13.916Z,99477.09
2023-02-24T02:12:44.839Z,99468.63
2023-02-24T02:15:16.724Z,99469.47
2023-02-24T02:18:20.808Z,99469.50
2023-02-24T02:21:40.183Z,99469.50
2023-02-24T02:24:33.618Z,99467.81
2023-02-24T02:27:29.624Z,99456.88
2023-02-24T02:30:19.509Z,99448.44
2023-02-24T02:33:39.692Z,99451.81
2023-02-24T02:36:39.461Z,99449.28
2023-02-24T02:39:14.597Z,99441.72
2023-02-24T02:42:26.568Z,99445.91
2023-02-24T02:45:09.318Z,99443.38
2023-02-24T02:48:00.801Z,99434.97
2023-02-24T02:50:43.255Z,99434.13
2023-02-24T02:53:26.566Z,99427.38
2023-02-24T02:56:23.855Z,99429.06
2023-02-24T02:58:55.116Z,99418.09
2023-02-24T03:01:28.385Z,99414.75
2023-02-24T03:04:04.508Z,99419.78
2023-02-24T03:06:55.873Z,99423.19
2023-02-24T03:09:36.008Z,99422.31
2023-02-24T03:12:14.944Z,99416.44
2023-02-24T03:14:52.559Z,99411.38
2023-02-24T03:17:28.850Z,99405.47
2023-02-24T03:20:14.845Z,99414.75
2023-02-24T03:23:04.816Z,99408.00
2023-02-24T03:25:46.747Z,99411.38
2023-02-24T03:28:30.319Z,99403.78
2023-02-24T03:31:07.404Z,99405.50
2023-02-24T03:33:49.223Z,99392.88
2023-02-24T03:36:15.976Z,99386.13
2023-02-24T03:38:43.688Z,99385.28
2023-02-24T03:41:11.295Z,99392.03
2023-02-24T03:43:45.116Z,99383.59
2023-02-24T03:46:13.939Z,99384.41
2023-02-24T03:48:47.439Z,99381.88
2023-02-24T03:51:23.207Z,99380.22
2023-02-24T03:54:08.941Z,99377.72
2023-02-24T03:56:49.649Z,99373.50
2023-02-24T03:59:42.486Z,99373.47
2023-02-24T04:02:20.160Z,99376.00
2023-02-24T04:05:09.549Z,99365.06
2023-02-24T04:08:05.444Z,99354.13
2023-02-24T04:10:52.310Z,99349.06
2023-02-24T04:13:37.213Z,99358.31
2023-02-24T04:16:36.310Z,99365.06
2023-02-24T04:19:14.024Z,99373.47
2023-02-24T04:21:45.418Z,99367.59
2023-02-24T04:24:16.180Z,99362.53
2023-02-24T04:26:46.602Z,99363.38
2023-02-24T04:29:29.187Z,99363.38
2023-02-24T04:32:07.383Z,99361.69
2023-02-24T04:34:35.041Z,99361.69
2023-02-24T04:37:02.312Z,99351.59
2023-02-24T04:39:31.042Z,99348.25
2023-02-24T04:42:01.612Z,99342.34
2023-02-24T04:44:29.089Z,99342.34
2023-02-24T04:46:56.488Z,99338.13
2023-02-24T04:49:23.518Z,99349.91
2023-02-24T04:51:51.588Z,99334.78
2023-02-24T04:54:20.819Z,99342.34
2023-02-24T04:56:50.844Z,99339.78
2023-02-24T04:59:20.203Z,99335.59
2023-02-24T05:01:47.582Z,99335.63
2023-02-24T05:04:14.929Z,99331.41
2023-02-24T05:06:44.215Z,99325.50
2023-02-24T05:09:14.364Z,99323.81
2023-02-24T05:11:43.580Z,99318.78
2023-02-24T05:14:16.237Z,99313.72
2023-02-24T05:16:44.957Z,99319.59
2023-02-24T05:19:34.294Z,99318.78
2023-02-24T05:22:06.854Z,99304.47
2023-02-24T05:24:34.763Z,99304.47
2023-02-24T05:27:03.606Z,99307.00
2023-02-24T05:29:35.241Z,99307.81
2023-02-24T05:32:04.339Z,99308.66
2023-02-24T05:34:33.529Z,99312.88
2023-02-24T05:37:07.193Z,99311.19
2023-02-24T05:39:35.053Z,99309.50
2023-02-24T05:42:06.365Z,99304.47
2023-02-24T05:44:35.457Z,99304.47
2023-02-24T05:47:05.229Z,99301.94
2023-02-24T05:49:35.143Z,99292.66
2023-02-24T05:52:10.064Z,99291.00
2023-02-24T05:54:41.855Z,99291.78
2023-02-24T05:57:13.480Z,99286.75
2023-02-24T05:59:42.066Z,99290.97
2023-02-24T06:02:13.550Z,99290.13
2023-02-24T06:04:51.573Z,99283.38
2023-02-24T06:07:26.799Z,99278.34
2023-02-24T06:09:58.531Z,99271.59
2023-02-24T06:12:29.651Z,99276.66
2023-02-24T06:15:00.415Z,99274.13
2023-02-24T06:17:28.178Z,99270.78
2023-02-24T06:19:55.184Z,99276.66
2023-02-24T06:22:26.031Z,99271.59
2023-02-24T06:24:55.122Z,99270.75
2023-02-24T06:27:24.486Z,99264.88
2023-02-24T06:29:54.367Z,99265.69
2023-02-24T06:32:24.601Z,99257.31
2023-02-24T06:34:52.054Z,99255.63
2023-02-24T06:37:19.357Z,99261.50
2023-02-24T06:39:46.449Z,99248.03
2023-02-24T06:42:13.872Z,99250.56
2023-02-24T06:44:41.381Z,99244.66
2023-02-24T06:47:13.337Z,99249.69
2023-02-24T06:49:42.631Z,99248.00
2023-02-24T06:52:10.893Z,99241.31
2023-02-24T06:54:37.633Z,99248.88
2023-02-24T06:57:04.703Z,99240.44
2023-02-24T06:59:32.088Z,99247.19
2023-02-24T07:02:03.263Z,99251.38
2023-02-24T07:04:30.149Z,99248.03
2023-02-24T07:07:03.054Z,99248.88
2023-02-24T07:09:31.355Z,99246.34
2023-02-24T07:11:58.765Z,99249.72
2023-02-24T07:14:30.878Z,99260.66
2023-02-24T07:16:59.401Z,99262.34
2023-02-24T07:19:30.062Z,99256.47
2023-02-24T07:22:03.702Z,99248.91
2023-02-24T07:24:37.087Z,99245.53
2023-02-24T07:27:27.541Z,99248.06
2023-02-24T07:29:54.304Z,99246.34
2023-02-24T07:32:23.037Z,99246.38
2023-02-24T07:34:49.960Z,99238.78
2023-02-24T07:37:16.856Z,99235.44
2023-02-24T07:39:43.940Z,99227.88
2023-02-24T07:42:14.924Z,99237.97
2023-02-24T07:44:44.380Z,99230.38
2023-02-24T07:47:11.227Z,99222.00
2023-02-24T07:49:40.725Z,99231.25
2023-02-24T07:52:08.120Z,99222.84
2023-02-24T07:54:35.520Z,99212.72
2023-02-24T07:57:02.475Z,99205.13
2023-02-24T07:59:33.142Z,99202.63
2023-02-24T08:02:04.444Z,99206.81
2023-02-24T08:04:32.871Z,99194.16
2023-02-24T08:07:02.934Z,99184.91
2023-02-24T08:09:47.154Z,99185.72
2023-02-24T08:12:22.490Z,99178.13
2023-02-24T08:14:53.038Z,99180.66
2023-02-24T08:17:26.129Z,99181.44
2023-02-24T08:20:15.632Z,99169.66
2023-02-24T08:22:46.578Z,99168.78
2023-02-24T08:25:18.989Z,99156.09
2023-02-24T08:28:07.020Z,99151.03
2023-02-24T08:30:38.882Z,99141.72
2023-02-24T08:33:09.627Z,99144.22
2023-02-24T08:35:44.282Z,99138.22
2023-02-24T08:38:16.600Z,99138.22
2023-02-24T08:40:52.258Z,99144.06
2023-02-24T08:43:34.785Z,99144.03
2023-02-24T08:46:13.576Z,99129.69
2023-02-24T08:48:56.799Z,99133.88
2023-02-24T08:51:34.928Z,99128.78
2023-02-24T08:54:11.014Z,99116.09
2023-02-24T08:56:43.334Z,99104.25
2023-02-24T08:59:37.681Z,99098.25
2023-02-24T09:02:18.762Z,99105.81
2023-02-24T09:04:46.887Z,99109.13
2023-02-24T09:07:35.325Z,99105.69
2023-02-24T09:10:11.358Z,99097.19
2023-02-24T09:12:41.233Z,99092.06
2023-02-24T09:15:17.334Z,99097.06
2023-02-24T09:17:45.393Z,99090.25
2023-02-24T09:20:27.048Z,99093.56
2023-02-24T09:22:59.591Z,99089.31
2023-02-24T09:25:40.624Z,99097.69
2023-02-24T09:28:27.373Z,99095.94
2023-02-24T09:30:58.617Z,99089.06
2023-02-24T09:33:41.654Z,99093.97
2023-02-24T09:36:12.914Z,99088.69
2023-02-24T09:39:00.741Z,99079.16
2023-02-24T09:41:56.479Z,99077.28
2023-02-24T09:44:39.783Z,99077.94
2023-02-24T09:47:56.980Z,99070.06
2023-02-24T09:51:02.571Z,99074.84
2023-02-24T09:53:41.196Z,99071.22
2023-02-24T09:56:22.734Z,99071.00
2023-02-24T09:59:01.050Z,99065.81
2023-02-24T10:02:18.074Z,99060.59
2023-02-24T10:05:07.854Z,99069.03
2023-02-24T10:07:43.881Z,99049.56
2023-02-24T10:10:20.226Z,99046.84
2023-02-24T10:12:54.614Z,99041.56
2023-02-24T10:15:49.274Z,99042.97
2023-02-24T10:19:14.924Z,99031.66
2023-02-24T10:22:02.471Z,99029.72
2023-02-24T10:24:38.431Z,99024.44
2023-02-24T10:27:30.053Z,99015.84
2023-02-24T10:30:10.770Z,99008.19
2023-02-24T10:32:43.268Z,99023.50
2023-02-24T10:35:17.782Z,99012.50
2023-02-24T10:37:45.392Z,99003.25
2023-02-24T10:40:24.715Z,99010.91
2023-02-24T10:42:54.959Z,99012.72
2023-02-24T10:45:34.685Z,99005.13
2023-02-24T10:48:07.351Z,98995.03
2023-02-24T10:50:55.431Z,98993.44
2023-02-24T10:53:37.510Z,98991.88
2023-02-24T10:56:26.921Z,98988.69
2023-02-24T10:59:25.172Z,98987.19
2023-02-24T11:01:59.765Z,98991.66
2023-02-24T11:04:58.417Z,98980.03
2023-02-24T11:07:33.454Z,98972.59
2023-02-24T11:10:11.370Z,98961.75
2023-02-24T11:13:10.274Z,98960.19
2023-02-24T11:16:09.761Z,98953.53
2023-02-24T11:18:39.146Z,98955.38
2023-02-24T11:21:11.098Z,98949.59
2023-02-24T11:23:45.978Z,98942.94
2023-02-24T11:26:21.639Z,98939.75
2023-02-24T11:29:50.029Z,98928.06
2023-02-24T11:32:52.860Z,98928.31
2023-02-24T11:35:40.700Z,98925.03
2023-02-24T11:38:46.773Z,98915.72
2023-02-24T11:41:27.119Z,98908.28
2023-02-24T11:44:19.772Z,98909.25
2023-02-24T11:46:54.534Z,98898.41
2023-02-24T11:49:42.326Z,98895.97
2023-02-24T11:52:40.842Z,98886.00
2023-02-24T11:55:35.989Z,98882.75
2023-02-24T11:58:39.518Z,98880.31
2023-02-24T12:01:22.363Z,98877.84
2023-02-24T12:04:19.014Z,98865.28
2023-02-24T12:07:20.361Z,98866.19
2023-02-24T12:10:15.513Z,98858.72
2023-02-24T12:13:13.980Z,98855.44
2023-02-24T12:16:08.268Z,98851.31
2023-02-24T12:18:50.298Z,98842.09
2023-02-24T12:21:30.551Z,98835.41
2023-02-24T12:23:59.077Z,98837.09
2023-02-24T12:26:47.792Z,98842.19
2023-02-24T12:29:56.000Z,98837.19
2023-02-24T12:33:03.101Z,98827.09
2023-02-24T12:36:09.589Z,98820.38
2023-02-24T12:39:00.817Z,98826.31
2023-02-24T12:41:46.790Z,98813.69
2023-02-24T12:44:45.103Z,98820.41
2023-02-24T12:47:30.184Z,98810.34
2023-02-24T12:50:14.499Z,98811.19
2023-02-24T12:53:08.379Z,98801.09
2023-02-24T12:56:11.684Z,98801.09
2023-02-24T12:58:44.909Z,98790.22
2023-02-24T13:01:55.909Z,98788.50
2023-02-24T13:04:54.874Z,98793.66
2023-02-24T13:07:42.771Z,98785.22
2023-02-24T13:10:46.438Z,98778.50
2023-02-24T13:13:31.423Z,98770.94
2023-02-24T13:16:02.543Z,98771.81
2023-02-24T13:18:39.399Z,98769.31
2023-02-24T13:21:23.437Z,98760.06
2023-02-24T13:24:03.408Z,98763.53
2023-02-24T13:26:32.733Z,98754.31
2023-02-24T13:29:11.768Z,98757.69
2023-02-24T13:31:51.626Z,98756.06
2023-02-24T13:34:44.615Z,98745.19
2023-02-24T13:37:11.781Z,98746.13
2023-02-24T13:39:41.494Z,98748.69
2023-02-24T13:42:24.534Z,98743.66
2023-02-24T13:45:02.022Z,98736.91
2023-02-24T13:47:59.781Z,98737.78
2023-02-24T13:51:03.655Z,98739.56
2023-02-24T13:53:51.173Z,98726.06
2023-02-24T13:56:39.417Z,98719.31
2023-02-24T13:59:32.817Z,98727.75
2023-02-24T14:02:15.619Z,98726.09
2023-02-24T14:04:59.550Z,98715.13
2023-02-24T14:07:33.738Z,98711.72
2023-02-24T14:10:06.193Z,98710.03
2023-02-24T14:12:36.177Z,98711.63
2023-02-24T14:15:04.754Z,98714.97
2023-02-24T14:17:37.159Z,98714.88
2023-02-24T14:20:09.672Z,98710.59
2023-02-24T14:22:44.932Z,98713.09
2023-02-24T14:25:13.315Z,98711.34
2023-02-24T14:27:42.502Z,98710.50
2023-02-24T14:30:26.020Z,98710.47
2023-02-24T14:32:53.406Z,98717.22
2023-02-24T14:35:38.945Z,98716.38
2023-02-24T14:38:06.077Z,98702.94
2023-02-24T14:40:33.391Z,98695.41
2023-02-24T14:43:00.291Z,98685.31
2023-02-24T14:45:28.862Z,98692.06
2023-02-24T14:47:56.762Z,98687.06
2023-02-24T14:50:41.697Z,98683.72
2023-02-24T14:53:17.723Z,98693.84
2023-02-24T14:55:50.562Z,98695.59
2023-02-24T14:58:31.485Z,98678.78
2023-02-24T15:01:21.666Z,98678.00
2023-02-24T15:04:12.017Z,98669.59
2023-02-24T15:06:43.709Z,98675.53
2023-02-24T15:09:24.257Z,98667.94
2023-02-24T15:11:53.286Z,98673.88
2023-02-24T15:14:26.517Z,98678.88
2023-02-24T15:17:16.161Z,98678.06
2023-02-24T15:19:46.383Z,98675.59
2023-02-24T15:22:28.632Z,98664.72
2023-02-24T15:25:15.660Z,98670.63
2023-02-24T15:27:56.771Z,98667.31
2023-02-24T15:30:29.289Z,98674.97
2023-02-24T15:33:26.379Z,98667.47
2023-02-24T15:35:59.357Z,98665.00
2023-02-24T15:38:36.204Z,98653.28
2023-02-24T15:41:06.062Z,98648.28
2023-02-24T15:43:38.607Z,98658.41
2023-02-24T15:46:31.016Z,98658.53
2023-02-24T15:49:03.154Z,98656.88
2023-02-24T15:51:39.816Z,98664.53
2023-02-24T15:54:20.001Z,98642.69
2023-02-24T15:56:48.824Z,98641.88
2023-02-24T15:59:19.716Z,98650.34
2023-02-24T16:01:46.688Z,98651.19
2023-02-24T16:04:14.027Z,98652.03
2023-02-24T16:06:54.472Z,98641.94
2023-02-24T16:09:36.244Z,98635.25
2023-02-24T16:12:13.291Z,98628.56
2023-02-24T16:14:41.531Z,98636.19
2023-02-24T16:17:39.078Z,98639.50
2023-02-24T16:20:12.518Z,98637.91
2023-02-24T16:22:39.302Z,98636.25
2023-02-24T16:25:06.962Z,98629.53
2023-02-24T16:27:34.327Z,98625.28
2023-02-24T16:30:01.091Z,98628.66
2023-02-24T16:32:28.105Z,98629.53
2023-02-24T16:34:55.108Z,98628.69
2023-02-24T16:37:29.770Z,98627.88
2023-02-24T16:39:59.127Z,98614.44
2023-02-24T16:42:25.896Z,98606.09
2023-02-24T16:44:52.756Z,98609.47
2023-02-24T16:47:25.256Z,98613.69
2023-02-24T16:49:57.512Z,98606.13
2023-02-24T16:52:24.883Z,98606.97
2023-02-24T16:54:51.897Z,98613.72
2023-02-24T16:57:18.620Z,98624.66
2023-02-24T16:59:45.334Z,98627.16
2023-02-24T17:02:23.882Z,98628.06
2023-02-24T17:04:50.709Z,98644.03
2023-02-24T17:07:20.244Z,98627.22
2023-02-24T17:09:47.267Z,98623.84
2023-02-24T17:12:17.047Z,98633.13
2023-02-24T17:14:43.740Z,98631.44
2023-02-24T17:17:11.675Z,98618.00
2023-02-24T17:19:39.009Z,98625.56
2023-02-24T17:22:05.988Z,98632.28
2023-02-24T17:24:32.718Z,98643.22
2023-02-24T17:27:00.457Z,98622.25
2023-02-24T17:29:27.825Z,98631.47
2023-02-24T17:31:54.705Z,98634.03
2023-02-24T17:34:23.857Z,98636.59
2023-02-24T17:36:50.668Z,98636.59
2023-02-24T17:39:17.425Z,98630.69
2023-02-24T17:41:44.348Z,98643.28
2023-02-24T17:44:11.162Z,98643.28
2023-02-24T17:46:38.007Z,98650.03
2023-02-24T17:49:05.068Z,98650.00
2023-02-24T17:51:32.366Z,98653.38
2023-02-24T17:53:59.221Z,98647.47
2023-02-24T17:56:26.098Z,98650.00
2023-02-24T17:58:58.642Z,98653.38
2023-02-24T18:01:27.049Z,98647.47
2023-02-24T18:03:57.268Z,98662.63
2023-02-24T18:06:25.212Z,98666.00
2023-02-24T18:08:51.982Z,98662.63
2023-02-24T18:11:19.852Z,98660.91
2023-02-24T18:13:48.557Z,98675.22
2023-02-24T18:16:16.292Z,98670.19
2023-02-24T18:18:43.112Z,98682.78
2023-02-24T18:21:09.796Z,98676.03
2023-02-24T18:23:40.046Z,98676.03
2023-02-24T18:26:09.852Z,98665.75
2023-02-24T18:28:37.900Z,98679.94
2023-02-24T18:31:33.118Z,98684.28
2023-02-24T18:34:00.566Z,98693.63
2023-02-24T18:36:28.066Z,98686.91
2023-02-24T18:38:57.713Z,98686.13
2023-02-24T18:41:24.859Z,98695.38
2023-02-24T18:43:55.074Z,98689.50
2023-02-24T18:46:24.547Z,98687.84
2023-02-24T18:48:51.773Z,98687.88
2023-02-24T18:51:22.654Z,98680.31
2023-02-24T18:53:52.585Z,98679.50
2023-02-24T18:56:23.927Z,98676.13
2023-02-24T18:58:52.712Z,98679.50
2023-02-24T19:01:24.849Z,98692.13
2023-02-24T19:03:53.662Z,98692.13
2023-02-24T19:06:21.491Z,98696.31
2023-02-24T19:08:54.768Z,98680.31
2023-02-24T19:11:21.762Z,98685.38
2023-02-24T19:13:48.574Z,98697.19
2023-02-24T19:16:17.256Z,98682.03
2023-02-24T19:18:45.040Z,98696.31
2023-02-24T19:21:12.057Z,98696.34
2023-02-24T19:23:38.898Z,98703.06
2023-02-24T19:26:07.801Z,98699.69
2023-02-24T19:28:34.769Z,98696.38
2023-02-24T19:31:01.565Z,98701.41
2023-02-24T19:33:28.748Z,98707.31
2023-02-24T19:36:03.489Z,98693.88
2023-02-24T19:38:30.714Z,98700.63
2023-02-24T19:41:01.274Z,98701.47
2023-02-24T19:43:28.710Z,98714.09
2023-02-24T19:45:55.892Z,98723.34
2023-02-24T19:48:23.434Z,98717.47
2023-02-24T19:50:50.476Z,98722.53
2023-02-24T19:53:18.532Z,98724.19
2023-02-24T19:55:49.758Z,98707.38
2023-02-24T19:58:16.826Z,98710.75
2023-02-24T20:00:43.815Z,98711.56
2023-02-24T20:03:16.995Z,98720.00
2023-02-24T20:05:44.032Z,98721.66
2023-02-24T20:08:11.472Z,98735.94
2023-02-24T20:10:38.790Z,98733.41
2023-02-24T20:13:05.862Z,98742.66
2023-02-24T20:15:33.606Z,98743.47
2023-02-24T20:18:04.686Z,98743.47
2023-02-24T20:20:32.051Z,98740.97
2023-02-24T20:22:59.350Z,98741.81
2023-02-24T20:25:26.441Z,98738.44
2023-02-24T20:27:54.124Z,98745.16
2023-02-24T20:30:21.412Z,98732.56
2023-02-24T20:32:48.900Z,98736.75
2023-02-24T20:35:18.791Z,98729.19
2023-02-24T20:37:45.763Z,98749.34
2023-02-24T20:40:13.145Z,98746.00
2023-02-24T20:42:39.979Z,98756.91
2023-02-24T20:45:08.011Z,98749.34
2023-02-24T20:47:35.013Z,98741.78
2023-02-24T20:50:03.127Z,98751.06
2023-02-24T20:52:30.452Z,98751.88
2023-02-24T20:54:57.172Z,98751.88
2023-02-24T20:57:24.139Z,98755.25
2023-02-24T21:00:02.847Z,98744.38
2023-02-24T21:02:30.185Z,98746.91
2023-02-24T21:04:57.005Z,98747.75
2023-02-24T21:07:23.963Z,98756.16
2023-02-24T21:09:52.066Z,98761.22
2023-02-24T21:12:19.368Z,98754.53
2023-02-24T21:14:46.192Z,98753.72
2023-02-24T21:17:13.024Z,98763.78
2023-02-24T21:19:39.875Z,98758.75
2023-02-24T21:22:06.924Z,98757.91
2023-02-24T21:24:33.619Z,98762.97
2023-02-24T21:27:00.409Z,98755.44
2023-02-24T21:29:27.517Z,98755.41
2023-02-24T21:31:55.964Z,98757.13
2023-02-24T21:34:22.833Z,98763.00
2023-02-24T21:36:49.633Z,98773.13
2023-02-24T21:39:17.653Z,98782.41
2023-02-24T21:41:44.893Z,98775.69
2023-02-24T21:44:14.693Z,98793.38
2023-02-24T21:46:42.497Z,98785.00
2023-02-24T21:49:14.294Z,98772.41
2023-02-24T21:51:42.129Z,98766.59
2023-02-24T21:54:08.908Z,98774.16
2023-02-24T21:56:35.760Z,98782.56
2023-02-24T21:59:06.230Z,98781.75
2023-02-24T22:01:37.100Z,98791.00
2023-02-24T22:04:08.301Z,98785.16
2023-02-24T22:06:38.206Z,98788.53
2023-02-24T22:09:08.388Z,98793.56
2023-02-24T22:11:39.359Z,98804.50
2023-02-24T22:14:14.703Z,98799.50
2023-02-24T22:16:42.482Z,98798.63
2023-02-24T22:19:10.193Z,98799.47
2023-02-24T22:21:39.575Z,98791.94
2023-02-24T22:24:06.867Z,98791.94
2023-02-24T22:26:33.927Z,98779.38
2023-02-24T22:29:08.377Z,98782.72
2023-02-24T22:31:38.157Z,98794.47
2023-02-24T22:34:06.222Z,98795.31
2023-02-24T22:36:36.826Z,98795.31
2023-02-24T22:39:06.305Z,98802.88
2023-02-24T22:41:35.560Z,98796.16
2023-02-24T22:44:05.253Z,98802.88
2023-02-24T22:46:38.300Z,98810.44
2023-02-24T22:49:06.495Z,98801.19
2023-02-24T22:51:35.058Z,98803.69
2023-02-24T22:54:02.973Z,98812.09
2023-02-24T22:56:30.832Z,98804.50
2023-02-24T22:58:58.923Z,98809.53
2023-02-24T23:01:29.909Z,98817.09
2023-02-24T23:04:01.238Z,98823.00
2023-02-24T23:06:29.436Z,98802.88
2023-02-24T23:08:59.621Z,98810.41
2023-02-24T23:11:33.616Z,98823.84
2023-02-24T23:14:05.870Z,98828.03
2023-02-24T23:16:35.235Z,98819.66
2023-02-24T23:19:12.060Z,98825.53
2023-02-24T23:21:43.466Z,98813.78
2023-02-24T23:24:12.558Z,98831.41
2023-02-24T23:27:00.498Z,98828.88
2023-02-24T23:29:27.527Z,98825.53
2023-02-24T23:31:54.458Z,98834.75
2023-02-24T23:34:25.008Z,98841.44
2023-02-24T23:36:52.178Z,98840.63
2023-02-24T23:39:23.529Z,98843.13
2023-02-24T23:41:57.532Z,98856.56
2023-02-24T23:44:25.128Z,98854.88
2023-02-24T23:46:52.184Z,98838.94
2023-02-24T23:49:19.133Z,98853.19
2023-02-24T23:51:48.719Z,98855.72
2023-02-24T23:54:18.132Z,98849.84
2023-02-24T23:56:45.438Z,98854.06
2023-02-24T23:59:12.494Z,98849.84
